Main page
METAR-TAF:

METAR-TAF

Airports :

Kulob, Tajikistan

Kulob Airport

latitude: 37-59-18N, longitude: 069-48-18E, elevation: 699 m

Current weather observation

The report was made 19 minutes ago, at 00:00 UTC
Wind 10 kt from the North/Northeast
Temperature 18°C
Humidity 42%
Pressure 1015 hPa
Visibility 10 km or more

METAR: UTDK 200000Z 02005MPS 9999 NSC 18/05 Q1015 R01/09//70 RMK QFE704/0938

Time: 05:19 (00:19 UTC)

Forecast

The report was made 3 hours and 19 minutes ago, at 21:00 UTC
Forecast valid from 19 at 22 UTC to 20 at 07 UTC
Wind 10 kt from the North/Northeast
Visibility: 6000 m
Few clouds at a height of 6600 ft
Scattered clouds at a height of 10000 ft
Temporary
from 19 at 22 UTC to 20 at 07 UTC
Wind 4 kt from variable directions

TAF: UTDK 192100Z 1922/2007 03005MPS 6000 FEW066 SCT100 TEMPO 1922/2007 VRB02MPS

Weather observations and forecasts of more than 4000 airports (METAR and TAF reports).

The available stations are represented by yellow and red dots on the map.

Hover mouse over dot to see the name of the station.

Then click to see weather observations and forecasts.

To change the map : click on the green buttons with a black cross to zoom in, on the green button with a dash to zoom out, or on the green arrows for adjacent maps.


METAR-TAF: